createdAt,value
2023-05-22T05:00:56.821Z,50.62
2023-05-22T05:01:56.709Z,50.62
2023-05-22T05:02:56.717Z,50.62
2023-05-22T05:03:56.725Z,56.25
2023-05-22T05:04:56.678Z,56.25
2023-05-22T05:05:56.655Z,61.88
2023-05-22T05:06:56.648Z,61.88
2023-05-22T05:07:56.660Z,61.88
2023-05-22T05:08:56.657Z,67.50
2023-05-22T05:09:56.612Z,67.50
2023-05-22T05:10:56.602Z,67.50
2023-05-22T05:12:01.622Z,67.50
2023-05-22T05:12:56.611Z,73.12
2023-05-22T05:13:56.599Z,73.12
2023-05-22T05:14:56.556Z,73.12
2023-05-22T05:15:56.544Z,78.75
2023-05-22T05:16:56.640Z,78.75
2023-05-22T05:17:56.557Z,78.75
2023-05-22T05:18:56.600Z,78.75
2023-05-22T05:19:56.501Z,84.38
2023-05-22T05:20:56.501Z,84.38
2023-05-22T05:21:56.482Z,90.00
2023-05-22T05:23:01.515Z,90.00
2023-05-22T05:23:56.455Z,95.62
2023-05-22T05:24:56.451Z,95.62
2023-05-22T05:25:56.456Z,95.62
2023-05-22T05:26:56.431Z,101.25
2023-05-22T05:27:56.428Z,106.88
2023-05-22T05:28:56.407Z,112.50
2023-05-22T05:29:56.389Z,106.88
2023-05-22T05:30:56.383Z,106.88
2023-05-22T05:31:56.449Z,106.88
2023-05-22T05:32:56.458Z,106.88
2023-05-22T05:34:01.378Z,112.50
2023-05-22T05:34:56.337Z,112.50
2023-05-22T05:35:56.435Z,118.12
2023-05-22T05:36:56.324Z,112.50
2023-05-22T05:37:56.314Z,112.50
2023-05-22T05:38:56.358Z,112.50
2023-05-22T05:39:56.280Z,106.88
2023-05-22T05:40:56.269Z,106.88
2023-05-22T05:41:56.272Z,106.88
2023-05-22T05:42:56.261Z,106.88
2023-05-22T05:43:56.307Z,106.88
2023-05-22T05:45:01.259Z,112.50
2023-05-22T05:45:56.279Z,112.50
2023-05-22T05:46:56.214Z,112.50
2023-05-22T05:47:56.273Z,118.12
2023-05-22T05:48:56.208Z,118.12
2023-05-22T05:49:56.242Z,123.75
2023-05-22T05:50:56.184Z,123.75
2023-05-22T05:51:56.149Z,123.75
2023-05-22T05:52:56.137Z,123.75
2023-05-22T05:53:56.125Z,129.38
2023-05-22T05:54:56.124Z,129.38
2023-05-22T05:56:01.216Z,129.38
2023-05-22T05:56:56.095Z,129.38
2023-05-22T05:57:56.085Z,129.38
2023-05-22T05:58:56.073Z,129.38
2023-05-22T05:59:56.068Z,129.38
2023-05-22T06:00:56.056Z,129.38
2023-05-22T06:01:56.093Z,129.38
2023-05-22T06:02:56.196Z,135.00
2023-05-22T06:03:56.124Z,135.00
2023-05-22T06:04:56.119Z,135.00
2023-05-22T06:05:56.125Z,135.00
2023-05-22T06:07:01.008Z,135.00
2023-05-22T06:07:56.014Z,135.00
2023-05-22T06:08:55.959Z,140.62
2023-05-22T06:09:55.958Z,146.25
2023-05-22T06:10:55.939Z,151.88
2023-05-22T06:11:55.923Z,151.88
2023-05-22T06:12:55.915Z,146.25
2023-05-22T06:13:56.024Z,146.25
2023-05-22T06:14:55.906Z,146.25
2023-05-22T06:15:55.898Z,151.88
2023-05-22T06:16:55.961Z,157.50
2023-05-22T06:18:00.899Z,163.12
2023-05-22T06:18:55.873Z,157.50
2023-05-22T06:19:55.938Z,151.88
2023-05-22T06:20:55.852Z,157.50
2023-05-22T06:21:55.812Z,157.50
2023-05-22T06:22:55.801Z,157.50
2023-05-22T06:23:55.809Z,163.12
2023-05-22T06:24:55.807Z,168.75
2023-05-22T06:25:55.855Z,174.38
2023-05-22T06:26:55.761Z,174.38
2023-05-22T06:27:55.747Z,180.00
2023-05-22T06:29:00.778Z,180.00
2023-05-22T06:29:56.514Z,191.25
2023-05-22T06:30:55.722Z,219.38
2023-05-22T06:31:55.760Z,225.00
2023-05-22T06:32:55.827Z,225.00
2023-05-22T06:33:55.805Z,225.00
2023-05-22T06:34:55.675Z,236.25
2023-05-22T06:35:55.666Z,230.62
2023-05-22T06:36:55.670Z,236.25
2023-05-22T06:37:55.657Z,247.50
2023-05-22T06:38:55.697Z,241.88
2023-05-22T06:40:00.650Z,213.75
2023-05-22T06:40:55.611Z,180.00
2023-05-22T06:41:55.595Z,174.38
2023-05-22T06:42:55.590Z,174.38
2023-05-22T06:43:55.568Z,180.00
2023-05-22T06:44:55.614Z,185.62
2023-05-22T06:45:55.603Z,185.62
2023-05-22T06:46:55.543Z,180.00
2023-05-22T06:47:55.643Z,174.38
2023-05-22T06:48:55.518Z,191.25
2023-05-22T06:49:55.516Z,196.88
2023-05-22T06:51:00.616Z,196.88
2023-05-22T06:51:55.480Z,196.88
2023-05-22T06:52:55.504Z,196.88
2023-05-22T06:53:55.463Z,191.25
2023-05-22T06:54:55.452Z,180.00
2023-05-22T06:55:55.436Z,174.38
2023-05-22T06:56:55.449Z,180.00
2023-05-22T06:57:55.496Z,174.38
2023-05-22T06:58:55.404Z,174.38
2023-05-22T06:59:55.394Z,180.00
2023-05-22T07:00:55.428Z,185.62
2023-05-22T07:02:00.409Z,191.25
2023-05-22T07:02:55.395Z,185.62
2023-05-22T07:03:55.450Z,185.62
2023-05-22T07:04:55.356Z,185.62
2023-05-22T07:05:55.362Z,185.62
2023-05-22T07:06:55.342Z,185.62
2023-05-22T07:07:55.324Z,185.62
2023-05-22T07:08:55.319Z,185.62
2023-05-22T07:09:55.395Z,191.25
2023-05-22T07:10:55.281Z,191.25
2023-05-22T07:11:55.270Z,202.50
2023-05-22T07:13:00.289Z,196.88
2023-05-22T07:13:55.249Z,191.25
2023-05-22T07:14:55.237Z,225.00
2023-05-22T07:15:55.256Z,241.88
2023-05-22T07:16:55.316Z,225.00
2023-05-22T07:17:55.275Z,191.25
2023-05-22T07:18:55.208Z,191.25
2023-05-22T07:19:55.176Z,191.25
2023-05-22T07:20:55.216Z,196.88
2023-05-22T07:21:55.153Z,196.88
2023-05-22T07:22:55.223Z,202.50
2023-05-22T07:24:00.190Z,208.12
2023-05-22T07:24:55.137Z,225.00
2023-05-22T07:25:55.134Z,225.00
2023-05-22T07:26:55.104Z,196.88
2023-05-22T07:27:55.096Z,208.12
2023-05-22T07:28:55.164Z,230.62
2023-05-22T07:29:55.064Z,241.88
2023-05-22T07:30:55.079Z,219.38
2023-05-22T07:31:55.081Z,208.12
2023-05-22T07:32:55.089Z,213.75
2023-05-22T07:33:55.024Z,213.75
2023-05-22T07:35:00.131Z,202.50
2023-05-22T07:35:55.024Z,196.88
2023-05-22T07:36:54.990Z,196.88
2023-05-22T07:37:54.987Z,196.88
2023-05-22T07:38:54.971Z,196.88
2023-05-22T07:39:55.170Z,196.88
2023-05-22T07:40:55.019Z,196.88
2023-05-22T07:41:56.939Z,196.88
2023-05-22T07:42:54.919Z,196.88
2023-05-22T07:43:54.910Z,196.88
2023-05-22T07:44:54.909Z,196.88
2023-05-22T07:45:59.977Z,202.50
2023-05-22T07:46:54.945Z,202.50
2023-05-22T07:47:56.398Z,202.50
2023-05-22T07:48:54.851Z,208.12
2023-05-22T07:49:54.853Z,208.12
2023-05-22T07:50:54.844Z,213.75
2023-05-22T07:51:54.817Z,225.00
2023-05-22T07:52:54.861Z,275.62
2023-05-22T07:53:54.802Z,241.88
2023-05-22T07:54:54.806Z,236.25
2023-05-22T07:55:54.809Z,225.00
2023-05-22T07:56:59.787Z,213.75
2023-05-22T07:57:54.750Z,247.50
2023-05-22T07:58:54.802Z,270.00
2023-05-22T07:59:54.731Z,241.88
2023-05-22T08:00:54.730Z,219.38
2023-05-22T08:01:56.001Z,343.12
2023-05-22T08:02:54.773Z,360.00
2023-05-22T08:03:54.898Z,230.62
2023-05-22T08:04:54.710Z,225.00
2023-05-22T08:05:54.672Z,230.62
2023-05-22T08:06:54.656Z,230.62
2023-05-22T08:07:59.680Z,230.62
2023-05-22T08:08:54.648Z,236.25
2023-05-22T08:09:54.610Z,230.62
2023-05-22T08:11:03.971Z,225.00
2023-05-22T08:11:54.650Z,219.38
2023-05-22T08:12:54.593Z,258.75
2023-05-22T08:13:54.578Z,225.00
2023-05-22T08:14:54.556Z,236.25
2023-05-22T08:16:00.449Z,275.62
2023-05-22T08:16:54.660Z,399.38
2023-05-22T08:17:54.590Z,236.25
2023-05-22T08:18:59.653Z,236.25
2023-05-22T08:19:54.615Z,241.88
2023-05-22T08:20:55.072Z,241.88
2023-05-22T08:21:54.482Z,230.62
2023-05-22T08:22:54.548Z,241.88
2023-05-22T08:23:54.463Z,185.62
2023-05-22T08:24:54.462Z,253.12
2023-05-22T08:25:54.467Z,264.38
2023-05-22T08:26:54.420Z,286.88
2023-05-22T08:27:54.698Z,247.50
2023-05-22T08:28:54.472Z,286.88
2023-05-22T08:29:59.426Z,320.62
2023-05-22T08:43:41.436Z,410.62
2023-05-22T08:44:37.261Z,371.25
2023-05-22T08:45:37.191Z,388.12
2023-05-22T08:46:37.240Z,405.00
2023-05-22T08:47:37.283Z,427.50
2023-05-22T08:48:37.171Z,455.62
2023-05-22T08:49:37.159Z,450.00
2023-05-22T08:50:37.276Z,489.38
2023-05-22T08:51:37.201Z,472.50
2023-05-22T08:52:37.109Z,421.88
2023-05-22T08:53:37.125Z,714.38
2023-05-22T09:19:20.460Z,275.62
2023-05-22T09:19:59.201Z,286.88
2023-05-22T09:20:59.185Z,303.75
2023-05-22T09:21:59.178Z,320.62
2023-05-22T09:22:59.177Z,320.62
2023-05-22T09:23:59.162Z,326.25
2023-05-22T09:24:59.146Z,337.50
2023-05-22T09:25:59.142Z,343.12
2023-05-22T09:26:59.120Z,354.38
2023-05-22T09:27:59.133Z,365.62
2023-05-22T09:28:59.104Z,416.25
2023-05-22T09:30:04.105Z,438.75
2023-05-22T09:31:00.665Z,444.38
2023-05-22T09:31:59.065Z,461.25
2023-05-22T09:32:59.194Z,511.88
2023-05-22T09:33:59.053Z,495.00
2023-05-22T09:34:59.166Z,540.00
2023-05-22T09:35:59.048Z,540.00
2023-05-22T09:36:59.040Z,523.12
2023-05-22T09:37:59.035Z,483.75
2023-05-22T09:38:58.987Z,388.12
2023-05-22T09:39:58.990Z,399.38
2023-05-22T09:41:03.997Z,376.88
2023-05-22T09:41:58.973Z,315.00
2023-05-22T09:42:59.116Z,292.50
2023-05-22T09:44:01.659Z,281.25
2023-05-22T09:44:58.938Z,270.00
2023-05-22T09:45:58.977Z,264.38
2023-05-22T09:46:58.915Z,264.38
2023-05-22T09:47:58.904Z,275.62
2023-05-22T09:48:58.927Z,286.88
2023-05-22T09:49:58.865Z,292.50
2023-05-22T09:50:58.888Z,303.75
2023-05-22T09:52:03.869Z,320.62
2023-05-22T09:52:58.843Z,343.12
2023-05-22T09:53:58.815Z,348.75
2023-05-22T09:54:58.812Z,393.75
2023-05-22T09:55:58.810Z,646.88
2023-05-22T09:56:58.782Z,438.75
2023-05-22T09:57:58.769Z,348.75
2023-05-22T09:58:58.771Z,320.62
2023-05-22T09:59:58.782Z,298.12
2023-05-22T10:00:58.756Z,298.12
2023-05-22T10:01:58.796Z,298.12
2023-05-22T10:03:03.777Z,286.88
2023-05-22T10:03:58.762Z,292.50
2023-05-22T10:04:58.704Z,309.38
2023-05-22T10:05:58.812Z,337.50
2023-05-22T10:06:58.712Z,382.50
2023-05-22T10:07:58.717Z,444.38
2023-05-22T10:08:58.661Z,461.25
2023-05-22T10:09:58.678Z,478.12
2023-05-22T10:10:58.697Z,483.75
2023-05-22T10:11:58.622Z,466.88
2023-05-22T10:12:58.612Z,461.25
2023-05-22T10:14:03.632Z,410.62
2023-05-22T10:14:58.616Z,393.75
2023-05-22T10:15:58.616Z,376.88
2023-05-22T10:16:58.569Z,365.62
2023-05-22T10:17:58.601Z,438.75
2023-05-22T10:18:58.596Z,466.88
2023-05-22T10:19:58.541Z,489.38
2023-05-22T10:20:58.544Z,607.50
2023-05-22T10:21:58.508Z,888.75
2023-05-22T10:22:58.650Z,1130.62
2023-05-22T10:23:58.522Z,1175.62
2023-05-22T10:25:03.506Z,573.75
2023-05-22T10:25:58.469Z,534.38
2023-05-22T10:26:58.505Z,517.50
2023-05-22T10:27:58.469Z,511.88
2023-05-22T10:28:58.469Z,579.38
2023-05-22T10:29:58.422Z,573.75
2023-05-22T10:30:58.432Z,585.00
2023-05-22T10:31:58.445Z,511.88
2023-05-22T10:32:58.559Z,495.00
2023-05-22T10:33:58.442Z,455.62
2023-05-22T10:34:58.365Z,455.62
2023-05-22T10:36:03.371Z,433.12
2023-05-22T10:37:13.291Z,438.75
2023-05-22T10:37:58.387Z,472.50
2023-05-22T10:38:58.448Z,444.38
2023-05-22T10:39:58.348Z,450.00
2023-05-22T10:40:58.311Z,450.00
2023-05-22T10:41:58.289Z,618.75
2023-05-22T10:42:58.290Z,613.12
2023-05-22T10:43:58.305Z,618.75
2023-05-22T10:44:58.257Z,579.38
2023-05-22T10:45:58.288Z,568.12
2023-05-22T10:46:58.257Z,1558.12
2023-05-22T10:47:58.258Z,1811.25
2023-05-22T10:49:03.235Z,1800.00
2023-05-22T10:49:58.216Z,1074.38
2023-05-22T10:50:59.925Z,568.12
2023-05-22T10:51:58.262Z,646.88
2023-05-22T10:52:58.173Z,607.50
2023-05-22T10:53:58.147Z,495.00
2023-05-22T10:54:58.267Z,461.25
2023-05-22T10:55:58.202Z,478.12
2023-05-22T10:56:58.130Z,483.75
2023-05-22T10:57:58.123Z,506.25
2023-05-22T10:58:58.140Z,506.25
2023-05-22T10:59:58.085Z,618.75
2023-05-22T11:00:58.083Z,658.12
2023-05-22T11:02:03.154Z,618.75
2023-05-22T11:03:03.335Z,585.00
2023-05-22T11:03:58.082Z,680.62
2023-05-22T11:04:58.092Z,2407.50
2023-05-22T11:05:58.051Z,2497.50
2023-05-22T11:06:58.020Z,2047.50
2023-05-22T11:07:58.006Z,1569.38
2023-05-22T11:08:57.984Z,1473.75
2023-05-22T11:09:57.979Z,630.00
2023-05-22T11:10:58.102Z,916.88
2023-05-22T11:11:57.956Z,1023.75
2023-05-22T11:12:57.965Z,2058.75
2023-05-22T11:13:57.955Z,832.50
2023-05-22T11:15:02.958Z,3071.25
2023-05-22T11:15:57.970Z,3161.25
2023-05-22T11:16:57.950Z,1591.88
2023-05-22T11:17:57.939Z,2188.12
2023-05-22T11:18:59.017Z,2311.88
2023-05-22T11:19:57.978Z,2722.50
2023-05-22T11:20:57.871Z,2250.00
2023-05-22T11:21:57.856Z,472.50
2023-05-22T11:22:57.835Z,376.88
2023-05-22T11:23:57.836Z,388.12
2023-05-22T11:24:57.840Z,2626.88
2023-05-22T11:25:57.818Z,1518.75
2023-05-22T11:26:57.919Z,753.75
2023-05-22T11:28:02.848Z,765.00
2023-05-22T11:28:57.800Z,781.88
2023-05-22T11:29:57.800Z,2221.88
2023-05-22T11:30:57.846Z,1653.75
2023-05-22T11:31:57.753Z,1867.50
2023-05-22T11:32:57.754Z,753.75
2023-05-22T11:33:57.716Z,725.62
2023-05-22T11:34:57.730Z,528.75
2023-05-22T11:35:57.712Z,686.25
2023-05-22T11:36:57.688Z,663.75
2023-05-22T11:37:57.679Z,613.12
2023-05-22T11:38:57.677Z,669.38
2023-05-22T11:39:57.680Z,646.88
2023-05-22T11:41:02.671Z,663.75
2023-05-22T11:41:57.672Z,765.00
2023-05-22T11:42:57.768Z,562.50
2023-05-22T11:43:57.622Z,945.00
2023-05-22T11:44:57.596Z,928.12
2023-05-22T11:45:57.665Z,1805.62
2023-05-22T11:46:57.578Z,2964.38
2023-05-22T11:47:57.639Z,2970.00
2023-05-22T11:48:57.575Z,2913.75
2023-05-22T11:49:57.557Z,2930.62
2023-05-22T11:50:57.530Z,3110.62
2023-05-22T11:51:57.542Z,3138.75
2023-05-22T11:52:57.542Z,3172.50
2023-05-22T11:54:02.571Z,3172.50
2023-05-22T11:54:57.493Z,3245.62
2023-05-22T11:55:57.476Z,3256.88
2023-05-22T11:56:57.494Z,3200.62
2023-05-22T11:57:57.472Z,3223.12
2023-05-22T11:58:57.582Z,3195.00
2023-05-22T11:59:57.464Z,3138.75
2023-05-22T12:00:57.427Z,3166.88
2023-05-22T12:01:57.412Z,3195.00
2023-05-22T12:02:57.451Z,3256.88
2023-05-22T12:03:57.525Z,3256.88
2023-05-22T12:05:02.403Z,3217.50
2023-05-22T12:05:57.457Z,3155.62
2023-05-22T12:06:57.406Z,3082.50
2023-05-22T12:07:57.360Z,3043.12
2023-05-22T12:08:57.332Z,3026.25
2023-05-22T12:09:57.336Z,2941.88
2023-05-22T12:10:57.312Z,2829.38
2023-05-22T12:11:57.322Z,2801.25
2023-05-22T12:12:57.292Z,2975.62
2023-05-22T12:13:57.278Z,3161.25
2023-05-22T12:14:57.380Z,3150.00
2023-05-22T12:16:02.325Z,3144.38
2023-05-22T12:16:57.388Z,3245.62
2023-05-22T12:17:57.295Z,3217.50
2023-05-22T12:18:57.291Z,3161.25
2023-05-22T12:19:57.245Z,3166.88
2023-05-22T12:20:57.229Z,3026.25
2023-05-22T12:21:57.208Z,1833.75
2023-05-22T12:22:57.206Z,517.50
2023-05-22T12:23:57.240Z,331.88
2023-05-22T12:24:57.187Z,320.62
2023-05-22T12:25:57.180Z,303.75
2023-05-22T12:27:02.169Z,298.12
2023-05-22T12:27:57.138Z,292.50
2023-05-22T12:28:57.137Z,292.50
2023-05-22T12:29:57.146Z,292.50
2023-05-22T12:30:57.225Z,281.25
2023-05-22T12:31:57.182Z,281.25
2023-05-22T12:32:57.112Z,270.00
2023-05-22T12:33:57.076Z,270.00
2023-05-22T12:34:57.073Z,264.38
2023-05-22T12:35:57.059Z,264.38
2023-05-22T12:36:57.057Z,264.38
2023-05-22T12:38:02.060Z,275.62
2023-05-22T12:38:57.020Z,270.00
2023-05-22T12:39:57.024Z,258.75
2023-05-22T12:40:57.050Z,253.12
2023-05-22T12:41:56.995Z,253.12
2023-05-22T12:42:56.992Z,253.12
2023-05-22T12:43:56.971Z,247.50
2023-05-22T12:44:56.979Z,247.50
2023-05-22T12:45:57.046Z,247.50
2023-05-22T12:46:57.060Z,247.50
2023-05-22T12:47:56.950Z,247.50
2023-05-22T12:49:01.944Z,247.50
2023-05-22T12:49:56.940Z,241.88
2023-05-22T12:50:56.909Z,241.88
2023-05-22T12:51:56.880Z,241.88
2023-05-22T12:52:56.867Z,236.25
2023-05-22T12:53:56.864Z,236.25
2023-05-22T12:54:56.863Z,241.88
2023-05-22T12:55:56.837Z,236.25
2023-05-22T12:56:56.837Z,241.88
2023-05-22T12:57:56.818Z,236.25
2023-05-22T12:58:56.807Z,230.62
2023-05-22T12:59:56.819Z,230.62
2023-05-22T13:00:56.797Z,230.62
2023-05-22T13:02:02.086Z,225.00
2023-05-22T13:02:56.804Z,225.00
2023-05-22T13:03:56.783Z,225.00
2023-05-22T13:04:56.780Z,225.00
2023-05-22T13:05:56.740Z,230.62
2023-05-22T13:06:56.709Z,225.00
2023-05-22T13:07:56.704Z,241.88
2023-05-22T13:08:57.617Z,236.25
2023-05-22T13:09:56.681Z,230.62
2023-05-22T13:10:56.675Z,241.88
2023-05-22T13:11:56.709Z,236.25
2023-05-22T13:12:56.647Z,230.62
2023-05-22T13:13:56.645Z,225.00
2023-05-22T13:15:01.645Z,213.75
2023-05-22T13:15:56.670Z,208.12
2023-05-22T13:16:56.635Z,208.12
2023-05-22T13:17:56.785Z,208.12
2023-05-22T13:18:56.648Z,208.12
2023-05-22T13:19:56.574Z,208.12
2023-05-22T13:20:56.558Z,208.12
2023-05-22T13:21:56.552Z,202.50
2023-05-22T13:22:56.569Z,202.50
2023-05-22T13:23:56.527Z,202.50
2023-05-22T13:24:56.511Z,202.50
2023-05-22T13:25:56.507Z,202.50
2023-05-22T13:26:56.521Z,202.50
2023-05-22T13:28:01.515Z,202.50
2023-05-22T13:28:56.507Z,202.50
2023-05-22T13:29:56.513Z,196.88
2023-05-22T13:30:56.529Z,196.88
2023-05-22T13:31:56.447Z,202.50
2023-05-22T13:32:56.481Z,202.50
2023-05-22T13:33:56.596Z,202.50
2023-05-22T13:34:56.403Z,191.25
2023-05-22T13:35:56.401Z,185.62
2023-05-22T13:36:56.529Z,185.62
2023-05-22T13:37:56.373Z,185.62
2023-05-22T13:38:56.369Z,196.88
2023-05-22T13:39:56.361Z,202.50
2023-05-22T13:41:01.367Z,202.50
2023-05-22T13:41:56.367Z,202.50
2023-05-22T13:42:56.366Z,202.50
2023-05-22T13:43:56.309Z,196.88
2023-05-22T13:44:56.299Z,202.50
2023-05-22T13:45:56.332Z,196.88
2023-05-22T13:46:56.345Z,191.25
2023-05-22T13:47:56.290Z,196.88
2023-05-22T13:48:56.261Z,185.62
2023-05-22T13:49:56.355Z,185.62
2023-05-22T13:50:56.250Z,185.62
2023-05-22T13:51:56.224Z,185.62
2023-05-22T13:52:56.208Z,174.38
2023-05-22T13:54:01.247Z,168.75
2023-05-22T13:54:56.196Z,185.62
2023-05-22T13:55:56.192Z,168.75
2023-05-22T13:56:56.194Z,180.00
2023-05-22T13:57:56.157Z,180.00
2023-05-22T13:58:56.147Z,174.38
2023-05-22T13:59:56.150Z,174.38
2023-05-22T14:00:56.159Z,168.75
2023-05-22T14:01:56.135Z,146.25
2023-05-22T14:02:56.154Z,163.12
2023-05-22T14:03:56.179Z,157.50
2023-05-22T14:05:01.254Z,174.38
2023-05-22T14:05:56.101Z,163.12
2023-05-22T14:06:56.082Z,163.12
2023-05-22T14:07:56.050Z,163.12
2023-05-22T14:08:56.044Z,151.88
2023-05-22T14:09:56.034Z,146.25
2023-05-22T14:10:56.008Z,146.25
2023-05-22T14:11:56.001Z,129.38
2023-05-22T14:12:55.988Z,118.12
2023-05-22T14:13:55.986Z,112.50
2023-05-22T14:14:55.961Z,112.50
2023-05-22T14:15:55.972Z,101.25
2023-05-22T14:16:55.952Z,101.25
2023-05-22T14:18:01.009Z,106.88
2023-05-22T14:18:56.166Z,106.88
2023-05-22T14:19:55.957Z,112.50
2023-05-22T14:20:56.020Z,106.88
2023-05-22T14:21:55.906Z,95.62
2023-05-22T14:22:58.256Z,90.00
2023-05-22T14:23:55.893Z,84.38
2023-05-22T14:24:55.847Z,84.38
2023-05-22T14:25:55.846Z,84.38
2023-05-22T14:26:55.831Z,84.38
2023-05-22T14:27:55.843Z,84.38
2023-05-22T14:28:55.816Z,78.75
2023-05-22T14:29:55.828Z,78.75
2023-05-22T14:31:00.821Z,78.75
2023-05-22T14:31:55.779Z,78.75
2023-05-22T14:32:55.831Z,78.75
2023-05-22T14:33:55.767Z,78.75
2023-05-22T14:34:55.782Z,84.38
2023-05-22T14:35:55.741Z,90.00
2023-05-22T14:36:55.847Z,90.00
2023-05-22T14:37:55.726Z,90.00
2023-05-22T14:38:55.695Z,90.00
2023-05-22T14:39:55.685Z,95.62
2023-05-22T14:40:55.738Z,101.25
2023-05-22T14:42:00.698Z,95.62
2023-05-22T14:42:55.691Z,101.25
2023-05-22T14:43:55.653Z,106.88
2023-05-22T14:44:55.627Z,101.25
2023-05-22T14:45:55.739Z,106.88
2023-05-22T14:46:55.621Z,101.25
2023-05-22T14:47:55.650Z,106.88
2023-05-22T14:48:55.585Z,106.88
2023-05-22T14:50:02.760Z,106.88
2023-05-22T14:50:55.578Z,118.12
2023-05-22T14:51:55.573Z,112.50
2023-05-22T14:53:00.678Z,118.12
2023-05-22T14:53:55.547Z,123.75
2023-05-22T14:54:55.566Z,118.12
2023-05-22T14:55:55.534Z,118.12
2023-05-22T14:56:55.505Z,123.75
2023-05-22T14:57:55.494Z,118.12
2023-05-22T14:58:55.491Z,118.12
2023-05-22T14:59:55.469Z,118.12
2023-05-22T15:00:55.479Z,118.12
2023-05-22T15:01:55.497Z,118.12
2023-05-22T15:02:55.494Z,118.12
2023-05-22T15:04:00.465Z,118.12
2023-05-22T15:04:55.458Z,123.75
2023-05-22T15:05:55.427Z,123.75
2023-05-22T15:06:55.385Z,118.12
2023-05-22T15:07:55.410Z,123.75
2023-05-22T15:08:55.477Z,123.75
2023-05-22T15:09:55.372Z,129.38
2023-05-22T15:10:55.364Z,129.38
2023-05-22T15:11:55.335Z,129.38
2023-05-22T15:12:55.327Z,135.00
2023-05-22T15:13:55.316Z,135.00
2023-05-22T15:15:00.345Z,140.62
2023-05-22T15:15:55.336Z,140.62
2023-05-22T15:16:55.273Z,140.62
2023-05-22T15:17:55.336Z,140.62
2023-05-22T15:18:55.272Z,140.62
2023-05-22T15:19:55.253Z,140.62
2023-05-22T15:20:55.241Z,140.62
2023-05-22T15:21:56.070Z,151.88
2023-05-22T15:22:55.209Z,146.25
2023-05-22T15:23:55.227Z,140.62
2023-05-22T15:24:55.329Z,151.88
2023-05-22T15:26:00.200Z,157.50
2023-05-22T15:26:55.159Z,157.50
2023-05-22T15:27:55.165Z,140.62
2023-05-22T15:28:55.150Z,140.62
2023-05-22T15:29:55.131Z,129.38
2023-05-22T15:30:55.171Z,129.38
2023-05-22T15:31:55.147Z,129.38
2023-05-22T15:32:55.140Z,135.00
2023-05-22T15:33:55.102Z,123.75
2023-05-22T15:34:55.083Z,123.75
2023-05-22T15:35:55.066Z,129.38
2023-05-22T15:37:00.101Z,112.50
2023-05-22T15:37:55.039Z,106.88
2023-05-22T15:38:55.048Z,118.12
2023-05-22T15:39:55.087Z,112.50
2023-05-22T15:40:55.130Z,95.62
2023-05-22T15:42:06.038Z,90.00
2023-05-22T15:42:55.012Z,90.00
2023-05-22T15:43:55.023Z,84.38
2023-05-22T15:44:54.973Z,78.75
2023-05-22T15:45:55.046Z,73.12
2023-05-22T15:46:54.980Z,73.12
2023-05-22T15:47:59.991Z,78.75
2023-05-22T15:48:54.917Z,73.12
2023-05-22T15:49:54.914Z,73.12
2023-05-22T15:50:54.894Z,73.12
2023-05-22T15:51:54.893Z,67.50
2023-05-22T15:52:54.891Z,67.50
2023-05-22T15:53:54.874Z,73.12
2023-05-22T15:54:56.359Z,67.50
2023-05-22T15:55:54.846Z,67.50
2023-05-22T15:56:54.871Z,73.12
2023-05-22T15:57:54.841Z,73.12
2023-05-22T15:58:59.832Z,73.12
2023-05-22T15:59:54.821Z,73.12
2023-05-22T16:00:54.891Z,73.12
2023-05-22T16:01:54.805Z,78.75
2023-05-22T16:02:54.905Z,84.38
2023-05-22T16:03:54.813Z,90.00
2023-05-22T16:04:54.744Z,95.62
2023-05-22T16:05:54.753Z,95.62
2023-05-22T16:06:54.761Z,101.25
2023-05-22T16:07:54.720Z,101.25
2023-05-22T16:08:54.700Z,101.25
2023-05-22T16:09:59.717Z,101.25
2023-05-22T16:10:54.691Z,101.25
2023-05-22T16:11:54.678Z,101.25
2023-05-22T16:12:54.678Z,95.62
2023-05-22T16:13:54.646Z,95.62
2023-05-22T16:15:00.236Z,95.62
2023-05-22T16:15:54.768Z,90.00
2023-05-22T16:16:54.616Z,90.00
2023-05-22T16:17:54.727Z,90.00
2023-05-22T16:18:54.615Z,90.00
2023-05-22T16:19:54.574Z,90.00
2023-05-22T16:20:59.596Z,78.75
2023-05-22T16:21:54.595Z,78.75
2023-05-22T16:22:54.548Z,73.12
2023-05-22T16:23:54.621Z,73.12
2023-05-22T16:24:54.523Z,73.12
2023-05-22T16:25:54.539Z,73.12
2023-05-22T16:26:54.505Z,67.50
2023-05-22T16:27:54.648Z,67.50
2023-05-22T16:28:54.596Z,61.88
2023-05-22T16:29:54.660Z,61.88
2023-05-22T16:30:54.674Z,56.25
2023-05-22T16:31:59.857Z,56.25
2023-05-22T16:32:54.608Z,56.25
2023-05-22T16:33:54.474Z,56.25
2023-05-22T16:34:54.445Z,50.62
2023-05-22T16:35:54.411Z,50.62
2023-05-22T16:36:54.519Z,50.62
2023-05-22T16:37:54.375Z,50.62
2023-05-22T16:38:54.440Z,45.00
2023-05-22T16:39:54.495Z,45.00
2023-05-22T16:40:54.542Z,45.00
2023-05-22T16:41:54.450Z,39.38
2023-05-22T16:42:59.371Z,39.38
2023-05-22T16:43:54.343Z,33.75
2023-05-22T16:44:54.490Z,33.75
2023-05-22T16:45:54.292Z,33.75
2023-05-22T16:46:54.476Z,33.75
2023-05-22T16:47:55.953Z,33.75
2023-05-22T16:48:54.336Z,33.75
2023-05-22T16:49:54.304Z,28.12
2023-05-22T16:50:54.287Z,28.12
2023-05-22T16:51:54.302Z,28.12
2023-05-22T16:52:54.316Z,33.75
2023-05-22T16:53:59.237Z,33.75
2023-05-22T16:54:54.218Z,33.75
2023-05-22T16:55:54.197Z,33.75
2023-05-22T16:56:54.495Z,33.75
2023-05-22T16:57:54.155Z,33.75
2023-05-22T16:58:54.324Z,33.75
2023-05-22T16:59:55.888Z,39.38
2023-05-22T17:00:54.259Z,39.38
2023-05-22T17:01:54.170Z,39.38
2023-05-22T17:02:54.256Z,45.00
2023-05-22T17:03:54.228Z,45.00
2023-05-22T17:04:59.177Z,45.00
2023-05-22T17:05:54.254Z,45.00
2023-05-22T17:06:54.054Z,45.00
2023-05-22T17:07:54.060Z,50.62
2023-05-22T17:08:54.034Z,45.00
2023-05-22T17:09:54.022Z,50.62
2023-05-22T17:10:54.002Z,50.62
2023-05-22T17:11:54.113Z,45.00
2023-05-22T17:12:53.988Z,45.00
2023-05-22T17:13:53.979Z,45.00
2023-05-22T17:14:54.012Z,39.38
2023-05-22T17:15:59.101Z,39.38
2023-05-22T17:16:54.051Z,39.38
2023-05-22T17:17:54.013Z,33.75
2023-05-22T17:18:55.050Z,33.75
2023-05-22T17:19:53.902Z,33.75
2023-05-22T17:20:54.018Z,28.12
2023-05-22T17:21:53.887Z,28.12
2023-05-22T17:22:53.894Z,28.12
2023-05-22T17:23:53.857Z,28.12
2023-05-22T17:24:53.843Z,28.12
2023-05-22T17:25:53.876Z,28.12
2023-05-22T17:26:58.851Z,28.12
2023-05-22T17:27:53.812Z,28.12
2023-05-22T17:28:53.817Z,28.12
2023-05-22T17:29:53.801Z,28.12
2023-05-22T17:30:53.779Z,28.12
2023-05-22T17:31:53.958Z,22.50
2023-05-22T17:32:53.843Z,22.50
2023-05-22T17:33:53.762Z,22.50
2023-05-22T17:34:53.735Z,16.88
2023-05-22T17:35:53.736Z,16.88
2023-05-22T17:36:53.735Z,16.88
2023-05-22T17:37:58.729Z,16.88
2023-05-22T17:38:53.694Z,16.88
2023-05-22T17:39:53.693Z,16.88
2023-05-22T17:40:53.742Z,16.88
2023-05-22T17:41:53.703Z,16.88
2023-05-22T17:42:53.688Z,16.88
2023-05-22T17:43:53.714Z,16.88
2023-05-22T17:44:53.636Z,16.88
2023-05-22T17:45:53.654Z,16.88
2023-05-22T17:46:53.604Z,16.88
2023-05-22T17:47:53.764Z,16.88
2023-05-22T17:48:58.603Z,16.88
2023-05-22T17:49:53.563Z,16.88
2023-05-22T17:50:53.573Z,16.88
2023-05-22T17:51:53.545Z,16.88
2023-05-22T17:52:53.540Z,16.88
2023-05-22T17:53:53.523Z,11.25
2023-05-22T17:54:53.527Z,16.88
2023-05-22T17:55:53.510Z,16.88
2023-05-22T17:56:53.486Z,16.88
2023-05-22T17:57:53.490Z,16.88
2023-05-22T17:58:53.479Z,16.88
2023-05-22T17:59:58.554Z,16.88
2023-05-22T18:00:53.440Z,16.88
2023-05-22T18:01:53.613Z,16.88
2023-05-22T18:02:53.549Z,16.88
2023-05-22T18:03:53.706Z,16.88
2023-05-22T18:04:53.415Z,16.88
2023-05-22T18:05:53.423Z,16.88
2023-05-22T18:06:53.427Z,16.88
2023-05-22T18:07:53.407Z,16.88
2023-05-22T18:08:53.358Z,16.88
2023-05-22T18:09:53.364Z,16.88